Last 7 Days

Suisun Valley (SSV)

Hourly Data | America/Los_Angeles
as of 1/25/20 9:32 PM PST
Date & Time Temp (°F) RH (%) Dew Pt (°F) Wind Spd (mph) Wind Dir (°) Wind Gust (mph) Latest Rain (In) Daily Rain (In) Daily Min Temp (°F) Daily Max Temp (°F)
1/25/20 - 2100 57.8 92 55.7 3.0 WSW | 237 9.1 0.00 0.00 50.4 63.4
1/25/20 - 2000 58.1 90 55.3 1.9 SW | 219 7.4 0.00 0.00 50.4 63.4
1/25/20 - 1900 57.6 89 54.5 1.4 SSE | 158 3.8 0.00 0.00 50.4 63.4
1/25/20 - 1800 58.0 89 55.0 1.3 SSW | 197 3.8 0.00 0.00 50.4 63.4
1/25/20 - 1700 59.4 86 55.2 1.8 SE | 144 4.1 0.00 0.00 50.4 63.4
1/25/20 - 1600 60.7 83 55.6 3.1 SSE | 147 7.4 0.00 0.00 50.4 63.4
1/25/20 - 1500 61.9 80 55.7 3.9 SE | 139 7.8 0.00 0.00 50.4 63.4
1/25/20 - 1400 62.4 77 55.2 2.4 SSE | 151 5.4 0.00 0.00 50.4 63.4
1/25/20 - 1300 61.3 80 55.0 2.8 SE | 146 6.4 0.00 0.00 50.4 61.9
1/25/20 - 1200 60.5 81 54.7 1.8 SE | 128 5.4 0.00 0.00 50.4 61.0
1/25/20 - 1100 58.6 86 54.4 2.8 SE | 129 5.8 0.00 0.00 50.4 59.6
1/25/20 - 1000 56.5 92 54.2 1.4 SE | 143 4.8 0.00 0.00 50.4 57.8
1/25/20 - 0900 54.1 97 53.4 0.2 N | 349 2.1 0.00 0.00 50.4 55.3
1/25/20 - 0800 52.7 98 52.1 0.6 NNW | 340 2.7 0.00 0.00 50.4 53.5
1/25/20 - 0700 52.0 98 51.4 0.0 N | 0 0.0 0.00 0.00 50.4 53.5
1/25/20 - 0600 51.7 98 51.0 0.0 N | 0 0.0 0.00 0.00 50.4 53.5
1/25/20 - 0500 51.0 97 50.3 0.0 N | 0 0.0 0.00 0.00 50.4 53.5
1/25/20 - 0400 51.8 97 51.0 0.0 WSW | 246 1.4 0.00 0.00 50.8 53.5
1/25/20 - 0300 52.9 96 51.9 0.0 N | 0 0.0 0.00 0.00 52.5 53.5
1/25/20 - 0200 53.2 96 52.1 0.0 N | 0 0.0 0.00 0.00 53.1 53.5
1/25/20 - 0100 53.2 95 52.0 0.1 SSW | 201 2.1 0.00 0.00 53.1 53.5
1/25/20 - 0000 53.8 94 52.1 0.9 SW | 219 3.8 0.00 0.00 42.1 66.7
1/24/20 - 2300 54.5 92 52.4 2.5 S | 189 4.8 0.00 0.00 42.1 66.7
1/24/20 - 2200 54.7 92 52.4 3.1 SW | 218 6.1 0.00 0.00 42.1 66.7
1/24/20 - 2100 56.0 90 53.1 1.8 SSW | 201 4.4 0.00 0.00 42.1 66.7
1/24/20 - 2000 57.1 87 53.3 0.2 WNW | 298 2.4 0.00 0.00 42.1 66.7
1/24/20 - 1900 59.0 78 52.2 0.7 NW | 313 3.1 0.00 0.00 42.1 66.7
1/24/20 - 1800 61.2 72 52.2 5.4 W | 265 13.2 0.00 0.00 42.1 66.7
1/24/20 - 1700 62.8 73 54.2 5.7 SW | 235 13.8 0.00 0.00 42.1 66.7
1/24/20 - 1600 64.5 70 54.4 5.5 WSW | 246 12.8 0.00 0.00 42.1 66.7
1/24/20 - 1500 63.8 71 54.1 6.1 WSW | 243 11.8 0.00 0.00 42.1 66.7
1/24/20 - 1400 65.9 66 54.4 3.4 SSW | 194 8.8 0.00 0.00 42.1 66.7
1/24/20 - 1300 63.8 73 55.2 4.0 SE | 141 8.1 0.00 0.00 42.1 65.1
1/24/20 - 1200 62.9 76 55.1 5.2 E | 101 8.4 0.00 0.00 42.1 63.7
1/24/20 - 1100 60.9 79 54.4 3.6 S | 173 6.4 0.00 0.00 42.1 62.3
1/24/20 - 1000 54.4 94 52.6 1.0 SSE | 160 5.4 0.00 0.00 42.1 58.3
1/24/20 - 0900 47.3 98 46.8 0.2 SSE | 161 3.1 0.00 0.00 42.1 51.3
1/24/20 - 0800 43.0 98 42.5 1.1 NNW | 340 4.4 0.00 0.00 42.1 45.8
1/24/20 - 0700 43.1 98 42.6 1.1 SSE | 151 4.8 0.00 0.00 42.3 45.8
1/24/20 - 0600 43.7 98 43.2 1.1 NW | 315 6.1 0.00 0.00 42.7 45.8
1/24/20 - 0500 44.2 98 43.6 1.5 NW | 318 3.4 0.00 0.00 43.5 45.8
1/24/20 - 0400 45.2 98 44.7 1.2 NW | 324 4.1 0.00 0.00 43.6 45.8
1/24/20 - 0300 44.0 98 43.4 1.7 NNW | 328 5.1 0.00 0.00 43.6 45.3
1/24/20 - 0200 44.3 98 43.7 1.8 NW | 323 4.4 0.00 0.00 44.0 45.3
1/24/20 - 0100 44.9 97 44.2 1.9 NW | 322 4.4 0.00 0.00 44.4 45.3
1/24/20 - 0000 45.9 97 45.1 2.2 NNW | 327 5.4 0.00 0.00 41.7 58.2
1/23/20 - 2300 47.3 96 46.4 1.6 NNW | 327 4.4 0.00 0.00 41.7 58.2
1/23/20 - 2200 49.0 96 47.8 0.5 NW | 315 2.7 0.00 0.00 41.7 58.2
1/23/20 - 2100 49.8 96 48.7 1.1 NNW | 331 3.4 0.00 0.00 41.7 58.2
1/23/20 - 2000 50.5 94 48.8 0.2 NNW | 328 2.7 0.00 0.00 41.7 58.2
1/23/20 - 1900 52.7 89 49.6 0.0 N | 0 0.0 0.00 0.00 41.7 58.2
1/23/20 - 1800 54.6 84 49.8 0.5 SW | 221 2.4 0.00 0.00 41.7 58.2
1/23/20 - 1700 56.9 76 49.3 1.9 SSE | 147 4.8 0.00 0.00 41.7 58.2
1/23/20 - 1600 57.9 72 49.0 3.1 ESE | 109 6.4 0.00 0.00 41.7 58.2
1/23/20 - 1500 57.6 73 49.0 3.5 ESE | 121 6.8 0.00 0.00 41.7 57.8
1/23/20 - 1400 56.5 78 49.8 1.3 SW | 214 4.4 0.00 0.00 41.7 57.4
1/23/20 - 1300 55.7 79 49.4 2.5 S | 174 5.4 0.00 0.00 41.7 56.1
1/23/20 - 1200 54.4 82 49.2 2.9 S | 172 5.4 0.00 0.00 41.7 55.3
1/23/20 - 1100 51.1 93 49.3 1.2 SE | 132 4.4 0.00 0.00 41.7 52.2
1/23/20 - 1000 47.8 98 47.3 0.2 NW | 309 2.7 0.00 0.00 41.7 49.2
1/23/20 - 0900 44.6 98 44.1 0.3 SW | 217 2.4 0.00 0.00 41.7 46.4
1/23/20 - 0800 42.9 98 42.4 0.0 N | 0 0.0 0.00 0.00 41.7 44.6
1/23/20 - 0700 42.8 98 42.4 0.0 N | 0 0.0 0.00 0.00 41.7 44.6
1/23/20 - 0600 42.8 98 42.4 0.3 WNW | 292 3.1 0.00 0.00 41.7 44.6
1/23/20 - 0500 42.7 98 42.2 0.8 NW | 324 3.1 0.00 0.00 41.7 44.6
1/23/20 - 0400 42.1 98 41.6 1.3 NNW | 327 3.4 0.00 0.00 41.7 44.6
1/23/20 - 0300 42.8 98 42.2 1.3 NW | 313 3.4 0.00 0.00 42.5 44.6
1/23/20 - 0200 43.2 98 42.6 1.3 NW | 322 4.1 0.00 0.00 42.8 44.6
1/23/20 - 0100 44.0 97 43.3 1.9 NW | 324 3.8 0.00 0.00 43.6 44.6
1/23/20 - 0000 45.1 97 44.3 2.8 NNW | 330 6.4 0.00 0.00 42.6 63.1
1/22/20 - 2300 45.7 97 44.9 1.9 NW | 312 5.8 0.00 0.00 42.6 63.1
1/22/20 - 2200 46.3 96 45.3 2.4 NW | 317 5.1 0.00 0.00 42.6 63.1
1/22/20 - 2100 46.9 96 45.8 2.6 NNW | 332 4.8 0.00 0.00 42.6 63.1
1/22/20 - 2000 48.3 94 46.7 2.0 NW | 318 3.8 0.00 0.00 42.6 63.1
1/22/20 - 1900 50.7 90 47.8 1.1 NW | 322 4.1 0.00 0.00 42.6 63.1
1/22/20 - 1800 55.7 79 49.2 1.9 SSW | 205 4.4 0.00 0.00 42.6 63.1
1/22/20 - 1700 60.2 69 49.9 3.1 ESE | 103 5.8 0.00 0.00 42.6 63.1
1/22/20 - 1600 62.2 61 48.6 2.3 ESE | 116 6.8 0.00 0.00 42.6 63.1
1/22/20 - 1500 62.4 58 47.5 3.0 S | 171 6.8 0.00 0.00 42.6 63.1
1/22/20 - 1400 62.2 56 46.4 2.0 SSE | 153 7.1 0.00 0.00 42.6 63.1
1/22/20 - 1300 60.4 60 46.3 2.9 SSE | 150 6.1 0.00 0.00 42.6 61.3
1/22/20 - 1200 59.4 64 47.1 3.2 SE | 143 6.4 0.00 0.00 42.6 60.5
1/22/20 - 1100 57.0 69 46.9 1.0 NE | 53 4.1 0.00 0.00 42.6 58.4
1/22/20 - 1000 52.0 87 48.2 1.8 N | 8 4.4 0.00 0.00 42.6 54.5
1/22/20 - 0900 46.9 97 46.2 2.8 NNW | 340 6.4 0.00 0.00 42.6 53.1
1/22/20 - 0800 43.1 98 42.6 1.6 NNW | 329 5.4 0.00 0.00 42.6 53.1
1/22/20 - 0700 43.4 98 42.9 1.3 NW | 326 4.4 0.00 0.00 43.0 53.1
1/22/20 - 0600 44.7 98 44.1 1.0 NNW | 329 4.4 0.00 0.00 43.8 53.1
1/22/20 - 0500 46.7 97 46.0 0.1 NW | 314 2.4 0.00 0.00 44.9 53.1
1/22/20 - 0400 48.5 97 47.7 0.4 NNW | 340 4.8 0.00 0.00 48.0 53.1
1/22/20 - 0300 50.2 96 49.2 0.5 WNW | 303 3.8 0.00 0.00 48.5 53.1
1/22/20 - 0200 51.8 97 50.9 0.4 SW | 236 3.4 0.00 0.00 51.4 53.1
1/22/20 - 0100 52.4 96 51.2 0.1 SSW | 192 2.7 0.00 0.00 51.9 53.1
1/22/20 - 0000 53.5 94 51.8 2.2 SSW | 201 7.1 0.00 0.36 38.4 54.1
1/21/20 - 2300 53.8 94 52.1 6.8 WSW | 237 15.2 0.00 0.36 38.4 54.1
1/21/20 - 2200 54.0 95 52.7 8.2 SW | 235 15.8 0.00 0.36 38.4 54.1
1/21/20 - 2100 53.2 98 52.6 4.7 SW | 214 10.1 0.01 0.36 38.4 53.6
1/21/20 - 2000 53.1 98 52.6 2.5 S | 191 7.1 0.01 0.35 38.4 53.5
1/21/20 - 1900 53.0 98 52.4 0.1 S | 185 2.1 0.00 0.34 38.4 53.5
1/21/20 - 1800 53.2 98 52.6 1.1 SE | 146 4.8 0.02 0.34 38.4 53.5
1/21/20 - 1700 53.4 97 52.7 1.4 SE | 129 4.4 0.10 0.32 38.4 53.5
1/21/20 - 1600 52.8 97 52.0 1.1 NNW | 340 3.8 0.14 0.22 38.4 53.4
1/21/20 - 1500 52.2 95 50.8 1.1 NNW | 329 3.8 0.03 0.08 38.4 52.7
1/21/20 - 1400 52.4 91 49.9 0.3 NW | 307 3.4 0.01 0.05 38.4 52.7
1/21/20 - 1300 52.1 87 48.5 0.0 N | 0 0.0 0.00 0.04 38.4 52.7
1/21/20 - 1200 51.7 87 48.0 0.2 ESE | 113 2.7 0.00 0.04 38.4 52.1
1/21/20 - 1100 50.6 92 48.4 0.1 NE | 41 2.4 0.00 0.04 38.4 51.4
1/21/20 - 1000 49.2 97 48.4 0.9 N | 359 3.8 0.00 0.04 38.4 50.0
1/21/20 - 0900 46.9 98 46.5 0.1 W | 272 3.1 0.01 0.04 38.4 48.2
1/21/20 - 0800 45.2 98 44.8 0.0 N | 0 0.0 0.01 0.03 38.4 45.7
1/21/20 - 0700 44.8 98 44.4 0.0 N | 0 0.0 0.02 0.02 38.4 45.2
1/21/20 - 0600 43.8 98 43.3 0.2 E | 93 6.1 0.00 0.00 38.4 44.5
1/21/20 - 0500 42.0 98 41.6 0.0 SSE | 153 2.4 0.00 0.00 38.4 42.9
1/21/20 - 0400 40.8 98 40.4 0.0 WNW | 290 1.7 0.00 0.00 38.4 41.4
1/21/20 - 0300 40.5 98 40.0 0.2 NW | 319 2.7 0.00 0.00 38.4 41.0
1/21/20 - 0200 39.3 98 38.8 0.5 NW | 320 2.4 0.00 0.00 38.4 40.6
1/21/20 - 0100 39.5 98 38.9 0.9 WNW | 303 3.8 0.00 0.00 38.6 40.6
1/21/20 - 0000 40.4 97 39.6 0.9 NNW | 342 4.4 0.00 0.00 39.4 53.4
1/20/20 - 2300 41.5 96 40.4 0.1 NNE | 12 2.4 0.00 0.00 39.7 53.4
1/20/20 - 2200 43.6 95 42.2 0.8 NW | 316 3.8 0.00 0.00 41.2 53.4
1/20/20 - 2100 45.3 92 43.3 0.2 WSW | 254 3.1 0.00 0.00 41.2 53.4
1/20/20 - 2000 47.1 90 44.2 1.0 WSW | 238 3.4 0.00 0.00 41.2 53.4
1/20/20 - 1900 47.8 89 44.7 0.4 NW | 316 3.4 0.00 0.00 41.2 53.4
1/20/20 - 1800 50.0 82 44.6 1.1 SSE | 156 5.4 0.00 0.00 41.2 53.4
1/20/20 - 1700 51.4 78 44.7 1.6 SSE | 153 4.8 0.00 0.00 41.2 53.4
1/20/20 - 1600 52.3 75 44.8 3.6 SSE | 151 6.4 0.00 0.00 41.2 53.4
1/20/20 - 1500 52.5 77 45.4 1.4 SSE | 157 4.1 0.00 0.00 41.2 53.4
1/20/20 - 1400 50.2 84 45.5 1.1 SE | 127 3.8 0.00 0.00 41.2 52.0
1/20/20 - 1300 48.2 87 44.6 1.9 SSE | 154 5.8 0.00 0.00 41.2 49.3
1/20/20 - 1200 46.2 91 43.7 2.3 SSE | 166 6.4 0.00 0.00 41.2 47.1
1/20/20 - 1100 44.6 95 43.2 0.9 ESE | 119 5.4 0.00 0.00 41.2 45.3
1/20/20 - 1000 43.4 97 42.6 1.4 S | 188 5.4 0.00 0.00 41.2 43.9
1/20/20 - 0900 42.6 97 41.9 0.8 SE | 143 4.8 0.00 0.00 41.2 43.2
1/20/20 - 0800 41.5 97 40.8 1.0 S | 184 5.8 0.00 0.00 41.2 43.2
1/20/20 - 0700 41.8 97 41.0 0.4 NNE | 22 3.1 0.00 0.00 41.2 43.2
1/20/20 - 0600 42.0 97 41.3 2.0 SSW | 211 5.8 0.00 0.00 41.2 43.2
1/20/20 - 0500 41.6 97 40.9 0.3 SSW | 212 5.4 0.00 0.00 41.2 43.2
1/20/20 - 0400 42.0 97 41.2 1.1 NNE | 13 5.1 0.00 0.00 41.8 43.2
1/20/20 - 0300 42.1 97 41.2 1.2 WSW | 241 5.4 0.00 0.00 41.8 43.2
1/20/20 - 0200 42.3 96 41.4 1.4 NNE | 32 6.1 0.00 0.00 42.2 43.2
1/20/20 - 0100 42.7 96 41.7 0.4 SW | 224 3.1 0.00 0.00 42.3 43.2
1/20/20 - 0000 42.4 97 41.5 1.5 SW | 216 7.1 0.00 0.00 35.7 48.3
1/19/20 - 2300 42.0 97 41.1 0.4 SW | 223 3.8 0.00 0.00 35.7 48.3
1/19/20 - 2200 42.6 96 41.6 0.1 WNW | 287 2.4 0.00 0.00 35.7 48.3
1/19/20 - 2100 42.9 96 41.7 0.3 NW | 308 3.4 0.00 0.00 35.7 48.3
1/19/20 - 2000 43.0 95 41.7 0.8 SSW | 204 5.1 0.00 0.00 35.7 48.3
1/19/20 - 1900 43.2 95 41.8 2.2 S | 172 7.1 0.00 0.00 35.7 48.3
1/19/20 - 1800 44.1 92 42.1 2.9 SSE | 160 7.1 0.00 0.00 35.7 48.3
1/19/20 - 1700 46.0 89 43.1 4.2 SE | 136 9.1 0.00 0.00 35.7 48.3
1/19/20 - 1600 47.5 86 43.6 4.2 SE | 135 8.4 0.00 0.00 35.7 48.3
1/19/20 - 1500 48.0 84 43.3 3.6 SE | 132 9.1 0.00 0.00 35.7 48.3
1/19/20 - 1400 47.9 83 43.1 5.0 SE | 124 11.1 0.00 0.00 35.7 48.3
1/19/20 - 1300 47.4 84 42.7 6.7 ESE | 117 12.8 0.00 0.00 35.7 48.3
1/19/20 - 1200 46.8 86 42.8 7.0 ESE | 117 14.8 0.00 0.00 35.7 47.4
1/19/20 - 1100 44.4 94 42.8 4.6 ESE | 120 10.1 0.00 0.00 35.7 46.4
1/19/20 - 1000 40.2 98 39.6 1.5 SSW | 193 7.1 0.00 0.00 35.7 42.3
1/19/20 - 0900 38.9 98 38.4 2.0 SSE | 168 6.4 0.00 0.00 35.7 41.1
1/19/20 - 0800 38.0 98 37.4 4.5 SSW | 205 7.1 0.00 0.00 35.7 41.1
1/19/20 - 0700 36.5 98 35.9 1.2 SSW | 199 6.8 0.00 0.00 35.7 41.1
1/19/20 - 0600 36.3 97 35.6 0.2 NW | 319 2.7 0.00 0.00 35.7 41.1
1/19/20 - 0500 36.7 97 36.0 0.5 NW | 319 2.7 0.00 0.00 36.5 41.1
1/19/20 - 0400 37.5 97 36.7 0.3 NW | 305 2.7 0.00 0.00 36.8 41.1
1/19/20 - 0300 38.3 97 37.4 0.7 NW | 312 3.1 0.00 0.00 37.7 41.1
1/19/20 - 0200 39.5 96 38.5 1.2 NW | 325 3.1 0.00 0.00 38.6 41.1
1/19/20 - 0100 40.7 96 39.6 1.8 NNW | 338 5.1 0.00 0.00 40.4 41.1
1/19/20 - 0000 41.4 95 40.0 0.6 NW | 324 2.7 0.00 0.00 33.8 57.3
1/18/20 - 2300 42.2 94 40.6 0.9 NNW | 342 3.8 0.00 0.00 33.8 57.3
1/18/20 - 2200 42.5 93 40.7 1.0 NW | 315 4.1 0.00 0.00 33.8 57.3
Max 65.9 98 55.7 8.2 - 15.8 0.14 0.36 53.1 66.7
Avg 49.3 91 46.5 1.7 - 4.9 0.00 - - -
Min 36.3 56 35.6 0.0 - 0.0 0.00 0.00 33.8 40.6
Total - - - - - - 0.36 - - -
Tip: Bookmark this page for easy future reference